sensor_id;sensor_type;location;lat;lon;timestamp;P1;durP1;ratioP1;P2;durP2;ratioP2
26177;SDS011;13924;47.670;10.310;2023-07-31T00:00:38;7.4;;;2.9;;
26177;SDS011;13924;47.670;10.310;2023-07-31T00:15:39;7.6;;;2.9;;
26177;SDS011;13924;47.670;10.310;2023-07-31T00:30:39;4.3;;;2.5;;
26177;SDS011;13924;47.670;10.310;2023-07-31T00:45:40;3.0;;;2.3;;
26177;SDS011;13924;47.670;10.310;2023-07-31T01:00:40;3.9;;;2.4;;
26177;SDS011;13924;47.670;10.310;2023-07-31T01:01:27;4.7;;;2.7;;
26177;SDS011;13924;47.670;10.310;2023-07-31T01:15:41;5.1;;;2.4;;
26177;SDS011;13924;47.670;10.310;2023-07-31T01:30:43;4.2;;;2.3;;
26177;SDS011;13924;47.670;10.310;2023-07-31T01:45:43;3.1;;;2.8;;
26177;SDS011;13924;47.670;10.310;2023-07-31T02:00:43;4.0;;;2.7;;
26177;SDS011;13924;47.670;10.310;2023-07-31T02:15:43;4.4;;;2.9;;
26177;SDS011;13924;47.670;10.310;2023-07-31T02:30:44;3.5;;;3.2;;
26177;SDS011;13924;47.670;10.310;2023-07-31T02:45:45;3.5;;;3.0;;
26177;SDS011;13924;47.670;10.310;2023-07-31T03:00:46;4.6;;;2.4;;
26177;SDS011;13924;47.670;10.310;2023-07-31T03:15:46;2.9;;;2.2;;
26177;SDS011;13924;47.670;10.310;2023-07-31T03:30:46;3.3;;;3.0;;
26177;SDS011;13924;47.670;10.310;2023-07-31T03:45:47;4.6;;;3.3;;
26177;SDS011;13924;47.670;10.310;2023-07-31T03:52:48;6.9;;;2.9;;
26177;SDS011;13924;47.670;10.310;2023-07-31T04:07:49;4.1;;;2.7;;
26177;SDS011;13924;47.670;10.310;2023-07-31T04:22:50;4.8;;;2.5;;
26177;SDS011;13924;47.670;10.310;2023-07-31T04:37:50;5.1;;;3.1;;
26177;SDS011;13924;47.670;10.310;2023-07-31T04:52:50;3.6;;;3.0;;
26177;SDS011;13924;47.670;10.310;2023-07-31T05:07:51;4.0;;;2.9;;
26177;SDS011;13924;47.670;10.310;2023-07-31T05:22:52;5.1;;;3.0;;
26177;SDS011;13924;47.670;10.310;2023-07-31T05:37:52;8.3;;;3.6;;
26177;SDS011;13924;47.670;10.310;2023-07-31T05:52:53;6.1;;;2.9;;
26177;SDS011;13924;47.670;10.310;2023-07-31T06:07:54;6.6;;;2.7;;
26177;SDS011;13924;47.670;10.310;2023-07-31T06:22:54;4.8;;;2.8;;
26177;SDS011;13924;47.670;10.310;2023-07-31T06:37:55;6.2;;;3.0;;
26177;SDS011;13924;47.670;10.310;2023-07-31T06:52:56;3.6;;;2.6;;
26177;SDS011;13924;47.670;10.310;2023-07-31T07:07:56;9.0;;;3.4;;
26177;SDS011;13924;47.670;10.310;2023-07-31T07:22:56;3.9;;;2.4;;
26177;SDS011;13924;47.670;10.310;2023-07-31T07:37:57;5.0;;;2.2;;
26177;SDS011;13924;47.670;10.310;2023-07-31T07:53:00;6.2;;;2.2;;
26177;SDS011;13924;47.670;10.310;2023-07-31T08:08:00;3.3;;;2.0;;
26177;SDS011;13924;47.670;10.310;2023-07-31T08:23:01;5.2;;;2.2;;
26177;SDS011;13924;47.670;10.310;2023-07-31T08:38:00;3.1;;;1.7;;
26177;SDS011;13924;47.670;10.310;2023-07-31T08:53:01;5.6;;;2.1;;
26177;SDS011;13924;47.670;10.310;2023-07-31T09:08:01;4.5;;;1.8;;
26177;SDS011;13924;47.670;10.310;2023-07-31T09:23:05;4.9;;;2.5;;
26177;SDS011;13924;47.670;10.310;2023-07-31T09:38:08;6.3;;;2.0;;
26177;SDS011;13924;47.670;10.310;2023-07-31T09:53:03;5.1;;;2.3;;
26177;SDS011;13924;47.670;10.310;2023-07-31T10:08:04;4.0;;;2.3;;
26177;SDS011;13924;47.670;10.310;2023-07-31T10:23:04;7.1;;;2.5;;
26177;SDS011;13924;47.670;10.310;2023-07-31T10:38:12;4.6;;;2.4;;
26177;SDS011;13924;47.670;10.310;2023-07-31T10:53:05;3.4;;;2.0;;
26177;SDS011;13924;47.670;10.310;2023-07-31T11:08:10;3.5;;;2.0;;
26177;SDS011;13924;47.670;10.310;2023-07-31T11:23:09;3.4;;;2.0;;
26177;SDS011;13924;47.670;10.310;2023-07-31T11:38:08;3.6;;;2.2;;
26177;SDS011;13924;47.670;10.310;2023-07-31T11:53:08;4.7;;;2.3;;
26177;SDS011;13924;47.670;10.310;2023-07-31T12:08:09;3.1;;;2.1;;
26177;SDS011;13924;47.670;10.310;2023-07-31T12:23:14;4.7;;;2.3;;
26177;SDS011;13924;47.670;10.310;2023-07-31T12:38:10;3.9;;;2.1;;
26177;SDS011;13924;47.670;10.310;2023-07-31T12:53:11;2.8;;;2.4;;
26177;SDS011;13924;47.670;10.310;2023-07-31T13:08:12;3.8;;;2.2;;
26177;SDS011;13924;47.670;10.310;2023-07-31T13:23:13;3.2;;;2.3;;
26177;SDS011;13924;47.670;10.310;2023-07-31T13:38:13;5.0;;;2.1;;
26177;SDS011;13924;47.670;10.310;2023-07-31T13:53:13;4.2;;;1.9;;
26177;SDS011;13924;47.670;10.310;2023-07-31T14:08:15;4.0;;;2.4;;
26177;SDS011;13924;47.670;10.310;2023-07-31T14:23:14;4.0;;;2.1;;
26177;SDS011;13924;47.670;10.310;2023-07-31T14:38:17;3.5;;;1.9;;
26177;SDS011;13924;47.670;10.310;2023-07-31T14:53:16;3.6;;;2.4;;
26177;SDS011;13924;47.670;10.310;2023-07-31T15:08:17;3.2;;;2.0;;
26177;SDS011;13924;47.670;10.310;2023-07-31T15:23:18;3.9;;;2.2;;
26177;SDS011;13924;47.670;10.310;2023-07-31T15:38:19;4.4;;;2.5;;
26177;SDS011;13924;47.670;10.310;2023-07-31T15:53:21;4.2;;;1.9;;
26177;SDS011;13924;47.670;10.310;2023-07-31T16:08:20;3.7;;;2.1;;
26177;SDS011;13924;47.670;10.310;2023-07-31T16:23:20;3.2;;;2.1;;
26177;SDS011;13924;47.670;10.310;2023-07-31T16:38:21;3.0;;;2.1;;
26177;SDS011;13924;47.670;10.310;2023-07-31T16:53:22;3.2;;;1.8;;
26177;SDS011;13924;47.670;10.310;2023-07-31T17:08:22;3.4;;;2.0;;
26177;SDS011;13924;47.670;10.310;2023-07-31T17:23:24;5.1;;;2.5;;
26177;SDS011;13924;47.670;10.310;2023-07-31T17:38:47;2.8;;;2.1;;
26177;SDS011;13924;47.670;10.310;2023-07-31T17:53:28;2.3;;;2.0;;
26177;SDS011;13924;47.670;10.310;2023-07-31T18:08:26;2.8;;;2.0;;
26177;SDS011;13924;47.670;10.310;2023-07-31T18:23:29;5.8;;;2.3;;
26177;SDS011;13924;47.670;10.310;2023-07-31T18:38:29;4.3;;;3.1;;
26177;SDS011;13924;47.670;10.310;2023-07-31T18:53:30;3.5;;;2.8;;
26177;SDS011;13924;47.670;10.310;2023-07-31T19:08:29;3.5;;;2.6;;
26177;SDS011;13924;47.670;10.310;2023-07-31T19:23:30;4.6;;;2.9;;
26177;SDS011;13924;47.670;10.310;2023-07-31T19:38:30;4.4;;;3.1;;
26177;SDS011;13924;47.670;10.310;2023-07-31T19:53:31;6.3;;;3.5;;
26177;SDS011;13924;47.670;10.310;2023-07-31T20:08:31;8.1;;;4.7;;
26177;SDS011;13924;47.670;10.310;2023-07-31T20:23:32;6.1;;;3.4;;
26177;SDS011;13924;47.670;10.310;2023-07-31T20:38:32;4.1;;;3.2;;
26177;SDS011;13924;47.670;10.310;2023-07-31T20:53:33;4.6;;;3.3;;
26177;SDS011;13924;47.670;10.310;2023-07-31T21:08:34;8.6;;;3.5;;
26177;SDS011;13924;47.670;10.310;2023-07-31T21:23:34;5.9;;;3.6;;
26177;SDS011;13924;47.670;10.310;2023-07-31T21:38:34;5.7;;;4.4;;
26177;SDS011;13924;47.670;10.310;2023-07-31T21:53:36;6.0;;;3.8;;
26177;SDS011;13924;47.670;10.310;2023-07-31T22:00:35;5.7;;;3.9;;
26177;SDS011;13924;47.670;10.310;2023-07-31T22:15:35;6.6;;;3.9;;
26177;SDS011;13924;47.670;10.310;2023-07-31T22:30:35;3.9;;;3.5;;
26177;SDS011;13924;47.670;10.310;2023-07-31T22:45:36;5.7;;;3.7;;
26177;SDS011;13924;47.670;10.310;2023-07-31T23:00:39;5.4;;;3.5;;
26177;SDS011;13924;47.670;10.310;2023-07-31T23:15:39;5.8;;;3.5;;
26177;SDS011;13924;47.670;10.310;2023-07-31T23:30:40;4.9;;;3.6;;
26177;SDS011;13924;47.670;10.310;2023-07-31T23:45:39;4.2;;;3.6;;
